Terminal Aerodrome Forecast
Issued by NWS Charleston, WV

Home | Current Version | Previous Version | Text Only | Print | Product List | Glossary On
Versions: 1 2 3 4 5 6 7 8 9 10 11 12 13 14 15 16 17 18 19 20 21 22 23 24 25 26 27 28
000
FTUS41 KRLX 011100
TAFCRW
TAF
KCRW 011120Z 0112/0212 00000KT 3SM BR SCT002 BKN100
     FM011300 00000KT P6SM BKN100
     FM011700 12005KT P6SM BKN050
     FM020200 00000KT P6SM BKN050
     FM020300 00000KT 6SM BR BKN050
     FM020400 00000KT 5SM BR BKN050
     FM020600 00000KT 3/4SM BR BKN001
     FM020700 00000KT 1/2SM FG BKN001=

USA.gov is the U.S. government's official web portal to all federal, state and local government web resources and services.